Des Moines, IA

1:18 AM CDT en Agosto 31, 2014 (GMT -0500)
Witmer Park | Change Station
CLOSE
Current Station
Estación meteorológica personal
Location: Des Moines, IA
Altura: 892 ft
Estaciones meteorológicas cercanas

Alt 892 ft 41.61 °N, 93.66 °W | Updated 16 seconds ago

Clear
Despejado
64.0 ° F
Sensación térmica 64.0 ° F
N
0.0
Viento Variable Viento desde OSO
Gusts 0.0 mph

Hoy
Alta -- | Baja -- ° F
--% Posibilidad de precipitaciones
Ayer
Alta -- | Baja -- ° F
Precip. -- pul
6:39 AM 7:49 PM
Creciente, 28% visible
Presión 29.86 pul
Visibilidad 10.0 Millas
Nubes Despejado
Punto de rocío 62 ° F
Humedad 94%
Precipitaciones 0.00 pul
Espesor de la nieve No disponible.
UV 0 de una escala de 12
Polen 8.20 de una escala de 12
Ozono Buena
PM2.5 Buena
Flu Activity No disponible.
METAR KDSM 310554Z 00000KT 10SM CLR 21/18 A2988 RMK AO2 SLP112 T02060178 10261 20206 402890189 55004

More Conditions Fewer Conditions

Presión 29.86 pul
Visibilidad 10.0 Millas
Nubes Despejado
Punto de rocío 62 ° F
Humedad 94%
Precipitaciones 0.00 pul
Espesor de la nieve No disponible.
UV 0 de una escala de 12
Polen 8.20 de una escala de 12
Ozono Buena
PM2.5 Buena
Flu Activity No disponible.
METAR KDSM 310554Z 00000KT 10SM CLR 21/18 A2988 RMK AO2 SLP112 T02060178 10261 20206 402890189 55004

More Conditions Fewer Conditions

10-Day Weather Forecast

Almanac

Astronomía

Aug. 31, 2014 Salida Puesta
Hora real 6:39 AM CDT 7:49 PM CDT
Crepúsculo civil 6:10 AM CDT 8:17 PM CDT
Crepúsculo náutico 5:36 AM CDT 8:51 PM CDT
Crepúsculo astronómico 5:00 AM CDT 9:27 PM CDT
Luna 12:31 PM CDT 10:59 PM CDT
Horas de luz 14h 06m
Horas de luz
13h 09m
Tomorrow will be 2m 40s shorter.
Creciente, 28% of the Moon is Illuminated
Hoy
Creciente
Sep 2
Cuarto creciente
Sep 8
Luna llena
Sep 15
Cuarto menguante
Sep 24
Nueva

Extremos de hoy

Máximos del estado Bajos del estado

Community

WunderPhotos

Upload Photos

1,748,801 ¡fotos cargadas!

Nearby

Calidad del aire

  Calidad del aire Índice AQ Contaminante
Ayer Buena
PM2.5
Ayer Buena
OZONE
Real Buena
PM2.5
Real Buena
OZONE
Sábado Buena
CO
Domingo Buena
OZONE

Grosos de nieve

Estación Profundido Altura
No tenemos constancia de nieve nueva.

Actividad de terremotos

Ciudad Distance Mag. Tiempo y dato
No hay informes recientes de la actividad sísmica.
Magnitud mínima muestra es 2,5.

Temperaturas de aguas costeras

Lugar Temperatura
Sin partes meteorológicos de las estaciones

Estaciones meteorológicas cercanas